Daily Summary

Last 30 Days

Daily Data | Pacific/Honolulu
as of 10/1/22 11:52 AM HST
Date Daily Max Temp (°F) Time of Max Temp Daily Min Temp (°F) Time of Min Temp Daily Rain (In) Seasonal Rainfall (In) Wind Spd (mph) Daily Max Wind (mph) Time of Max Wind Max Wind Dir (°) Daily Solar Rad (Cal/cm2) Daily ETo (in) Dew Pt (°F) Max RH (%) Min RH (%) Max Press (inHg) Time of Max Press Min Press (inHg) Time of Min Press MinBV Day (V)
9/30/22 87.5 1244 74.5 0520 0.00 12.87 5.3 22.0 1440 NE | 35 572 0.210 70.1 86 55 30.08 0054 29.95 1535 12.6
9/29/22 85.6 1400 77.2 0443 0.00 12.87 5.9 23.0 1338 NNE | 31 548 0.203 69.1 76 58 30.11 0933 29.99 1612 12.6
9/28/22 86.8 1401 77.2 0618 0.00 12.87 5.6 23.0 1101 NE | 49 577 0.216 67.9 74 48 30.11 0927 30.00 1541 12.7
9/27/22 86.2 1339 77.7 0618 0.00 12.87 6.8 23.8 1328 NNE | 29 587 0.222 68.5 75 53 30.08 2211 29.98 1611 12.6
9/26/22 87.4 1151 74.3 0251 0.00 12.87 5.3 21.1 1643 NE | 42 594 0.216 69.3 87 54 30.10 2153 29.98 1440 12.6
9/25/22 85.4 1133 74.0 0638 0.10 12.87 2.4 13.0 1027 ESE | 111 276 0.097 72.8 91 64 30.11 2154 29.99 1555 12.6
9/24/22 86.6 1346 73.6 0635 0.10 12.77 4.1 18.6 1304 NNE | 30 409 0.150 72.5 93 60 30.06 2238 29.93 1549 12.6
9/23/22 87.0 1323 73.9 0704 0.30 12.67 4.5 19.6 1100 NNE | 30 432 0.155 71.7 93 59 30.02 2259 29.91 1453 12.6
9/22/22 87.1 1119 74.8 0454 0.00 12.37 4.7 18.1 1509 NE | 36 435 0.166 70.2 86 56 30.01 2148 29.88 1514 12.6
9/21/22 87.3 1258 77.3 0028 0.00 12.37 7.6 22.7 1544 NNE | 27 591 0.223 69.9 80 55 30.05 0902 29.90 1718 12.6
9/20/22 85.6 1107 77.1 2341 0.02 12.37 8.8 27.6 1735 NNE | 29 612 0.237 69.0 82 57 30.06 2218 29.94 1519 12.7
9/19/22 84.0 1144 77.9 0442 0.00 12.35 8.6 29.0 1339 NE | 43 579 0.219 68.9 77 60 30.05 2220 29.94 1547 12.7
9/18/22 85.3 1510 77.5 0400 0.06 12.35 6.9 24.2 2124 NNE | 19 465 0.177 70.8 79 62 30.07 0929 29.97 1555 12.7
9/17/22 86.6 1223 73.3 0344 0.00 12.29 5.3 21.5 1036 NNE | 33 560 0.204 69.6 89 53 30.08 0913 29.98 1629 12.7
9/16/22 84.9 1334 73.7 0613 0.00 12.29 4.6 15.7 1201 SW | 227 505 0.171 72.0 91 66 30.08 2117 29.98 1541 12.7
9/15/22 86.7 1115 75.1 0618 0.00 12.29 4.3 19.6 1222 NE | 40 474 0.175 70.4 87 56 30.08 2315 29.97 1536 12.7
9/14/22 86.5 1330 77.7 0611 0.00 12.29 6.1 22.1 1626 NNE | 23 601 0.224 68.9 75 52 30.06 2320 29.94 1528 12.7
9/13/22 84.3 1006 78.2 0109 0.00 12.29 7.8 23.9 2008 NE | 42 431 0.183 69.1 77 58 30.12 0010 29.99 1604 12.7
9/12/22 86.4 1341 76.0 0635 0.07 12.29 6.1 22.5 1415 NNE | 22 595 0.219 70.1 85 56 30.14 0941 30.05 1551 12.7
9/11/22 86.6 1221 77.1 0323 0.00 12.22 5.0 21.7 1415 NE | 35 521 0.193 70.1 80 56 30.11 2258 29.96 0408 12.7
9/10/22 86.9 1407 74.3 0743 0.21 12.22 5.5 22.3 1546 NE | 40 595 0.211 71.2 90 57 30.02 2251 29.88 1609 12.7
9/9/22 84.2 1336 74.6 0541 0.12 12.01 6.0 22.4 1243 NE | 34 432 0.156 71.5 88 68 30.00 0103 29.87 1514 12.7
9/8/22 85.3 1305 77.2 2315 0.02 11.89 6.9 21.1 1246 NE | 41 576 0.223 68.5 79 55 30.06 1057 29.94 1704 12.7
9/7/22 85.9 1026 79.0 2358 0.00 11.87 9.0 26.0 1354 NE | 42 594 0.238 69.7 75 56 30.08 1044 29.97 0424 12.7
9/6/22 86.2 1258 78.8 0418 0.01 11.87 8.4 30.8 1527 NNE | 31 562 0.218 71.3 79 59 30.07 1112 29.95 1558 12.7
9/5/22 85.6 1404 77.8 0538 0.03 11.86 7.1 29.2 1435 NNE | 30 616 0.228 70.0 80 58 30.09 0755 29.96 1543 12.7
9/4/22 87.3 1226 76.6 0352 0.06 11.83 6.9 28.0 1655 NNE | 31 630 0.228 71.2 89 59 30.09 1031 29.97 1618 12.7
9/3/22 85.1 1427 76.1 0149 0.14 11.77 5.6 25.2 1546 NE | 56 431 0.157 72.4 89 64 30.10 2300 29.98 1546 12.7
9/2/22 86.5 1235 75.1 0550 0.04 11.63 6.8 24.1 1734 NNE | 30 614 0.228 69.5 84 50 30.05 2217 29.94 1601 12.7
9/1/22 86.5 1427 77.3 2359 0.00 11.59 7.8 26.4 1321 ENE | 66 597 0.236 67.6 78 50 30.08 0001 29.95 1802 12.7
Max 87.5 - 79.0 - 0.30 12.87 9.0 30.8 - - 630 0.238 72.8 93 68 30.14 - 30.05 - 12.7
Avg - - - - - - 6.2 - - - - - 70.1 - - - - - - -
Min 84.0 - 73.3 - 0.00 11.59 2.4 13.0 - - 276 0.097 67.6 74 48 30.00 - 29.87 - 12.6